createdAt,value
2022-09-15T00:00:12.351Z,22.31
2022-09-15T00:02:39.175Z,22.09
2022-09-15T00:05:06.085Z,21.88
2022-09-15T00:07:32.766Z,21.68
2022-09-15T00:09:59.395Z,21.63
2022-09-15T00:12:27.352Z,21.65
2022-09-15T00:14:54.350Z,21.77
2022-09-15T00:17:21.461Z,21.76
2022-09-15T00:19:48.497Z,21.59
2022-09-15T00:22:15.845Z,21.62
2022-09-15T00:24:42.589Z,21.43
2022-09-15T00:27:09.136Z,21.25
2022-09-15T00:29:36.660Z,21.19
2022-09-15T00:32:03.812Z,21.09
2022-09-15T00:34:30.568Z,21.02
2022-09-15T00:36:57.252Z,20.92
2022-09-15T00:39:23.949Z,20.87
2022-09-15T00:41:50.695Z,20.75
2022-09-15T00:44:40.373Z,20.70
2022-09-15T00:47:19.160Z,20.57
2022-09-15T00:49:49.458Z,20.56
2022-09-15T00:52:27.828Z,20.56
2022-09-15T00:55:12.008Z,20.53
2022-09-15T00:58:02.670Z,20.52
2022-09-15T01:00:30.298Z,20.53
2022-09-15T01:02:57.821Z,20.45
2022-09-15T01:05:31.022Z,20.33
2022-09-15T01:08:35.975Z,20.20
2022-09-15T01:11:03.190Z,20.16
2022-09-15T01:13:30.011Z,20.08
2022-09-15T01:16:07.983Z,20.07
2022-09-15T01:18:52.841Z,19.98
2022-09-15T01:21:40.070Z,19.90
2022-09-15T01:24:41.364Z,19.81
2022-09-15T01:27:38.108Z,19.70
2022-09-15T01:30:09.083Z,19.59
2022-09-15T01:32:57.351Z,19.48
2022-09-15T01:35:42.360Z,19.40
2022-09-15T01:38:31.054Z,19.33
2022-09-15T01:41:05.909Z,19.25
2022-09-15T01:43:35.560Z,19.19
2022-09-15T01:46:04.656Z,19.17
2022-09-15T01:48:34.119Z,19.14
2022-09-15T01:51:03.619Z,19.09
2022-09-15T01:53:30.476Z,19.22
2022-09-15T01:56:02.777Z,19.27
2022-09-15T01:58:29.630Z,19.23
2022-09-15T02:01:03.903Z,19.03
2022-09-15T02:03:37.841Z,18.90
2022-09-15T02:06:14.691Z,18.85
2022-09-15T02:09:07.064Z,18.84
2022-09-15T02:11:35.977Z,18.79
2022-09-15T02:14:17.284Z,18.66
2022-09-15T02:16:48.944Z,18.54
2022-09-15T02:19:41.532Z,18.47
2022-09-15T02:22:27.863Z,18.37
2022-09-15T02:25:02.227Z,18.25
2022-09-15T02:27:32.870Z,18.14
2022-09-15T02:30:06.013Z,18.14
2022-09-15T02:32:35.037Z,18.13
2022-09-15T02:35:06.713Z,18.12
2022-09-15T02:37:36.664Z,18.14
2022-09-15T02:40:05.589Z,18.16
2022-09-15T02:42:34.185Z,18.15
2022-09-15T02:45:01.524Z,18.13
2022-09-15T02:47:28.857Z,18.15
2022-09-15T02:49:56.901Z,18.14
2022-09-15T02:52:23.682Z,18.10
2022-09-15T02:54:50.552Z,18.03
2022-09-15T02:57:17.624Z,17.98
2022-09-15T03:00:03.101Z,17.98
2022-09-15T03:02:30.196Z,17.98
2022-09-15T03:04:57.039Z,17.98
2022-09-15T03:07:24.966Z,17.97
2022-09-15T03:09:51.729Z,17.97
2022-09-15T03:12:18.436Z,17.97
2022-09-15T03:14:47.035Z,18.00
2022-09-15T03:17:13.837Z,18.02
2022-09-15T03:19:40.517Z,18.03
2022-09-15T03:22:07.404Z,18.03
2022-09-15T03:24:34.105Z,18.04
2022-09-15T03:27:00.895Z,18.05
2022-09-15T03:29:27.619Z,18.02
2022-09-15T03:31:54.422Z,18.00
2022-09-15T03:34:21.191Z,17.97
2022-09-15T03:36:47.838Z,17.95
2022-09-15T03:39:14.985Z,17.91
2022-09-15T03:41:41.837Z,17.88
2022-09-15T03:44:08.528Z,17.87
2022-09-15T03:46:35.707Z,17.83
2022-09-15T03:49:02.425Z,17.80
2022-09-15T03:51:29.182Z,17.71
2022-09-15T03:53:56.061Z,17.78
2022-09-15T03:56:28.537Z,17.73
2022-09-15T03:58:55.704Z,17.73
2022-09-15T04:01:23.514Z,17.68
2022-09-15T04:03:51.530Z,17.57
2022-09-15T04:06:20.034Z,17.57
2022-09-15T04:08:47.163Z,17.49
2022-09-15T04:11:14.487Z,17.50
2022-09-15T04:13:42.114Z,17.48
2022-09-15T04:16:11.530Z,17.46
2022-09-15T04:18:38.413Z,17.45
2022-09-15T04:21:08.475Z,17.42
2022-09-15T04:23:35.513Z,17.40
2022-09-15T04:26:03.019Z,17.44
2022-09-15T04:28:33.037Z,17.42
2022-09-15T04:31:09.713Z,17.39
2022-09-15T04:33:37.153Z,17.35
2022-09-15T04:36:06.953Z,17.33
2022-09-15T04:38:33.849Z,17.30
2022-09-15T04:41:00.522Z,17.30
2022-09-15T04:43:27.274Z,17.28
2022-09-15T04:45:54.080Z,17.25
2022-09-15T04:48:22.052Z,17.25
2022-09-15T04:50:49.370Z,17.26
2022-09-15T04:53:16.279Z,17.24
2022-09-15T04:55:43.237Z,17.25
2022-09-15T04:58:09.861Z,17.26
2022-09-15T05:00:43.491Z,17.22
2022-09-15T05:03:14.367Z,17.29
2022-09-15T05:05:41.341Z,17.30
2022-09-15T05:08:08.313Z,17.34
2022-09-15T05:10:35.573Z,17.37
2022-09-15T05:13:02.231Z,17.38
2022-09-15T05:15:28.936Z,17.37
2022-09-15T05:17:55.670Z,17.39
2022-09-15T05:20:22.716Z,17.41
2022-09-15T05:22:49.505Z,17.39
2022-09-15T05:25:16.722Z,17.44
2022-09-15T05:27:44.002Z,17.49
2022-09-15T05:30:35.783Z,17.55
2022-09-15T05:32:57.517Z,17.56
2022-09-15T05:35:24.262Z,17.64
2022-09-15T05:37:51.064Z,17.68
2022-09-15T05:40:20.680Z,17.68
2022-09-15T05:42:47.459Z,17.80
2022-09-15T05:45:14.208Z,17.90
2022-09-15T05:47:41.232Z,17.99
2022-09-15T05:50:08.483Z,18.12
2022-09-15T05:52:35.832Z,18.15
2022-09-15T05:55:02.594Z,18.41
2022-09-15T05:57:29.716Z,18.55
2022-09-15T05:59:56.510Z,18.66
2022-09-15T06:02:23.362Z,18.74
2022-09-15T06:04:50.120Z,18.81
2022-09-15T06:07:16.911Z,18.86
2022-09-15T06:09:44.074Z,18.99
2022-09-15T06:12:10.816Z,19.13
2022-09-15T06:14:37.530Z,19.31
2022-09-15T06:17:04.359Z,19.42
2022-09-15T06:19:31.139Z,19.60
2022-09-15T06:21:58.132Z,19.82
2022-09-15T06:24:24.880Z,19.86
2022-09-15T06:26:51.629Z,19.90
2022-09-15T06:29:19.141Z,20.08
2022-09-15T06:31:46.014Z,20.13
2022-09-15T06:34:13.191Z,20.25
2022-09-15T06:36:40.400Z,20.39
2022-09-15T06:39:08.453Z,20.66
2022-09-15T06:42:00.754Z,20.76
2022-09-15T06:44:22.419Z,20.83
2022-09-15T06:46:49.382Z,20.83
2022-09-15T06:49:16.484Z,20.80
2022-09-15T06:51:43.178Z,20.76
2022-09-15T06:54:09.913Z,20.75
2022-09-15T06:56:38.269Z,20.72
2022-09-15T06:59:05.507Z,20.73
2022-09-15T07:01:32.787Z,20.74
2022-09-15T07:04:01.173Z,20.84
2022-09-15T07:06:29.639Z,20.82
2022-09-15T07:08:57.205Z,20.83
2022-09-15T07:11:24.680Z,20.93
2022-09-15T07:13:52.213Z,20.97
2022-09-15T07:16:20.253Z,21.11
2022-09-15T07:18:47.535Z,21.21
2022-09-15T07:21:17.033Z,21.33
2022-09-15T07:23:44.707Z,21.58
2022-09-15T07:26:17.085Z,21.95
2022-09-15T07:28:47.126Z,22.18
2022-09-15T07:31:16.836Z,22.34
2022-09-15T07:33:44.257Z,22.57
2022-09-15T07:36:11.713Z,22.50
2022-09-15T07:38:44.398Z,22.33
2022-09-15T07:41:14.264Z,22.37
2022-09-15T07:43:46.369Z,22.44
2022-09-15T07:46:13.170Z,22.43
2022-09-15T07:48:39.932Z,22.47
2022-09-15T07:51:06.586Z,22.50
2022-09-15T07:53:33.461Z,22.64
2022-09-15T07:56:00.144Z,22.77
2022-09-15T07:58:26.878Z,22.80
2022-09-15T08:00:53.525Z,22.85
2022-09-15T08:03:20.206Z,22.82
2022-09-15T08:05:46.812Z,22.77
2022-09-15T08:08:13.563Z,22.72
2022-09-15T08:10:41.441Z,22.67
2022-09-15T08:13:08.213Z,22.62
2022-09-15T08:15:38.850Z,22.56
2022-09-15T08:18:06.477Z,22.52
2022-09-15T08:20:34.339Z,22.39
2022-09-15T08:23:00.902Z,22.42
2022-09-15T08:25:27.630Z,22.34
2022-09-15T08:27:55.097Z,22.48
2022-09-15T08:30:22.820Z,22.54
2022-09-15T08:32:50.368Z,22.62
2022-09-15T08:35:18.570Z,22.70
2022-09-15T08:37:45.968Z,22.87
2022-09-15T08:40:43.657Z,23.02
2022-09-15T08:43:19.731Z,23.18
2022-09-15T08:45:53.571Z,23.43
2022-09-15T08:48:27.438Z,23.68
2022-09-15T08:50:57.973Z,23.86
2022-09-15T08:53:34.315Z,23.93
2022-09-15T08:56:09.314Z,23.99
2022-09-15T08:58:38.526Z,24.04
2022-09-15T09:01:11.420Z,24.03
2022-09-15T09:04:08.566Z,23.91
2022-09-15T09:07:00.153Z,23.80
2022-09-15T09:10:07.062Z,23.58
2022-09-15T09:12:54.008Z,23.43
2022-09-15T09:15:35.763Z,23.36
2022-09-15T09:18:33.351Z,23.26
2022-09-15T09:21:11.799Z,23.16
2022-09-15T09:24:03.282Z,23.05
2022-09-15T09:26:32.598Z,22.94
2022-09-15T09:29:19.334Z,22.89
2022-09-15T09:31:50.927Z,22.88
2022-09-15T09:34:33.010Z,22.90
2022-09-15T09:37:09.022Z,22.90
2022-09-15T09:39:36.064Z,22.93
2022-09-15T09:42:03.158Z,22.95
2022-09-15T09:44:32.719Z,23.01
2022-09-15T09:47:03.991Z,22.98
2022-09-15T09:49:34.900Z,22.92
2022-09-15T09:52:04.193Z,22.85
2022-09-15T09:54:33.267Z,22.76
2022-09-15T09:57:30.550Z,22.70
2022-09-15T09:59:57.977Z,22.68
2022-09-15T10:02:26.685Z,22.64
2022-09-15T10:05:02.611Z,22.61
2022-09-15T10:07:33.294Z,22.49
2022-09-15T10:10:01.881Z,22.49
2022-09-15T10:12:32.441Z,22.48
2022-09-15T10:15:05.048Z,22.46
2022-09-15T10:17:44.186Z,22.45
2022-09-15T10:20:32.604Z,22.43
2022-09-15T10:23:07.680Z,22.46
2022-09-15T10:25:57.937Z,22.53
2022-09-15T10:28:27.658Z,22.62
2022-09-15T10:31:03.633Z,22.76
2022-09-15T10:33:42.022Z,22.90
2022-09-15T10:36:15.145Z,22.94
2022-09-15T10:38:56.889Z,22.95
2022-09-15T10:41:26.655Z,23.00
2022-09-15T10:44:02.161Z,23.04
2022-09-15T10:46:44.167Z,23.07
2022-09-15T10:49:35.491Z,23.14
2022-09-15T10:52:29.626Z,23.05
2022-09-15T10:55:01.987Z,22.96
2022-09-15T10:57:40.716Z,22.83
2022-09-15T11:00:24.798Z,22.63
2022-09-15T11:03:05.664Z,22.55
2022-09-15T11:05:49.015Z,22.31
2022-09-15T11:08:40.985Z,22.30
2022-09-15T11:11:43.166Z,22.23
2022-09-15T11:14:32.561Z,22.10
2022-09-15T11:17:09.978Z,22.05
2022-09-15T11:19:53.231Z,21.98
2022-09-15T11:22:22.311Z,22.00
2022-09-15T11:24:58.926Z,22.01
2022-09-15T11:27:35.415Z,21.99
2022-09-15T11:30:07.176Z,21.97
2022-09-15T11:32:52.862Z,21.85
2022-09-15T11:35:45.199Z,21.71
2022-09-15T11:38:24.102Z,21.52
2022-09-15T11:40:59.454Z,21.52
2022-09-15T11:43:39.926Z,21.42
2022-09-15T11:46:13.542Z,21.24
2022-09-15T11:48:51.393Z,20.95
2022-09-15T11:51:21.913Z,20.39
2022-09-15T11:54:17.604Z,19.83
2022-09-15T11:56:47.374Z,18.97
2022-09-15T11:59:43.444Z,17.97
2022-09-15T12:02:25.147Z,17.58
2022-09-15T12:05:07.113Z,17.18
2022-09-15T12:07:41.290Z,17.17
2022-09-15T12:10:33.991Z,17.12
2022-09-15T12:13:01.225Z,17.22
2022-09-15T12:15:28.395Z,17.28
2022-09-15T12:18:27.309Z,17.30
2022-09-15T12:21:12.435Z,17.36
2022-09-15T12:23:50.080Z,17.38
2022-09-15T12:26:21.471Z,17.41
2022-09-15T12:28:54.696Z,17.28
2022-09-15T12:31:27.343Z,17.34
2022-09-15T12:34:05.542Z,17.38
2022-09-15T12:36:47.298Z,17.41
2022-09-15T12:39:24.094Z,17.43
2022-09-15T12:41:55.010Z,17.39
2022-09-15T12:45:00.278Z,17.37
2022-09-15T12:47:33.026Z,17.39
2022-09-15T12:50:09.029Z,17.43
2022-09-15T12:52:47.580Z,17.44
2022-09-15T12:56:01.059Z,17.49
2022-09-15T12:58:47.768Z,17.52
2022-09-15T13:01:27.181Z,17.60
2022-09-15T13:03:55.336Z,17.58
2022-09-15T13:06:35.562Z,17.55
2022-09-15T13:09:02.304Z,17.59
2022-09-15T13:11:37.185Z,17.58
2022-09-15T13:14:04.207Z,17.61
2022-09-15T13:16:40.481Z,17.59
2022-09-15T13:19:31.510Z,17.56
2022-09-15T13:22:20.409Z,17.52
2022-09-15T13:25:14.757Z,17.50
2022-09-15T13:27:50.397Z,17.61
2022-09-15T13:30:54.882Z,17.76
2022-09-15T13:39:53.283Z,17.99
2022-09-15T13:42:37.030Z,18.06
2022-09-15T13:45:29.807Z,18.03
2022-09-15T13:47:59.479Z,18.12
2022-09-15T13:50:37.132Z,18.14
2022-09-15T13:53:25.955Z,18.24
2022-09-15T13:55:57.314Z,18.29
2022-09-15T14:01:13.199Z,18.71
2022-09-15T14:03:50.652Z,18.86
2022-09-15T14:06:27.558Z,19.02
2022-09-15T14:08:58.917Z,18.98
2022-09-15T14:11:30.274Z,19.29
2022-09-15T14:13:59.199Z,19.45
2022-09-15T14:16:34.034Z,19.46
2022-09-15T14:19:03.862Z,19.56
2022-09-15T14:21:33.461Z,19.63
2022-09-15T14:24:17.496Z,19.57
2022-09-15T14:26:44.383Z,19.52
2022-09-15T14:29:20.405Z,19.54
2022-09-15T14:31:48.718Z,19.51
2022-09-15T14:34:24.680Z,19.54
2022-09-15T14:37:02.320Z,19.53
2022-09-15T14:39:29.201Z,19.48
2022-09-15T14:41:56.148Z,19.47
2022-09-15T14:47:19.986Z,19.25
2022-09-15T14:49:49.737Z,19.24
2022-09-15T14:52:27.463Z,19.16
2022-09-15T14:55:00.537Z,19.03
2022-09-15T14:57:31.364Z,18.96
2022-09-15T15:00:07.158Z,18.87
2022-09-15T15:02:55.937Z,18.82
2022-09-15T15:05:41.702Z,18.63
2022-09-15T15:08:15.677Z,18.70
2022-09-15T15:10:42.766Z,18.65
2022-09-15T15:13:16.290Z,18.49
2022-09-15T15:15:44.365Z,18.50
2022-09-15T15:18:39.973Z,18.42
2022-09-15T15:21:40.263Z,18.33
2022-09-15T15:24:12.751Z,18.27
2022-09-15T15:26:42.266Z,18.21
2022-09-15T15:29:55.014Z,18.20
2022-09-15T15:32:25.054Z,18.17
2022-09-15T15:34:59.817Z,18.09
2022-09-15T15:37:32.213Z,18.05
2022-09-15T15:40:04.008Z,18.04
2022-09-15T15:42:31.028Z,18.03
2022-09-15T15:44:59.069Z,17.97
2022-09-15T15:47:25.919Z,17.94
2022-09-15T15:50:12.697Z,17.91
2022-09-15T15:52:41.550Z,17.90
2022-09-15T15:55:08.173Z,17.92
2022-09-15T15:57:37.252Z,17.93
2022-09-15T16:00:07.411Z,17.90
2022-09-15T16:02:34.042Z,17.88
2022-09-15T16:05:00.832Z,17.86
2022-09-15T16:07:33.150Z,17.82
2022-09-15T16:10:00.314Z,17.80
2022-09-15T16:12:30.685Z,17.75
2022-09-15T16:14:59.827Z,17.71
2022-09-15T16:17:26.404Z,17.68
2022-09-15T16:19:52.995Z,17.68
2022-09-15T16:22:23.348Z,17.67
2022-09-15T16:24:49.906Z,17.67
2022-09-15T16:27:17.323Z,17.66
2022-09-15T16:29:45.049Z,17.65
2022-09-15T16:32:18.687Z,17.63
2022-09-15T16:34:45.749Z,17.64
2022-09-15T16:37:12.945Z,17.62
2022-09-15T16:39:39.538Z,17.61
2022-09-15T16:42:06.185Z,17.60
2022-09-15T16:44:32.802Z,17.60
2022-09-15T16:46:59.451Z,17.58
2022-09-15T16:49:26.116Z,17.58
2022-09-15T16:51:52.785Z,17.55
2022-09-15T16:54:23.053Z,17.54
2022-09-15T16:56:49.655Z,17.47
2022-09-15T16:59:16.205Z,17.31
2022-09-15T17:01:42.887Z,17.32
2022-09-15T17:04:14.725Z,17.35
2022-09-15T17:06:41.454Z,17.31
2022-09-15T17:09:08.126Z,17.31
2022-09-15T17:11:34.889Z,17.32
2022-09-15T17:14:01.527Z,17.33
2022-09-15T17:16:28.221Z,17.32
2022-09-15T17:18:54.892Z,17.30
2022-09-15T17:21:21.677Z,17.29
2022-09-15T17:23:49.468Z,17.27
2022-09-15T17:26:28.796Z,17.28
2022-09-15T17:28:57.672Z,17.27
2022-09-15T17:31:25.154Z,17.24
2022-09-15T17:33:52.400Z,17.24
2022-09-15T17:36:19.403Z,17.20
2022-09-15T17:38:48.076Z,17.14
2022-09-15T17:41:15.207Z,17.12
2022-09-15T17:43:42.075Z,17.04
2022-09-15T17:46:09.114Z,17.00
2022-09-15T17:48:38.622Z,17.00
2022-09-15T17:51:06.005Z,17.01
2022-09-15T17:53:32.705Z,16.99
2022-09-15T17:55:59.405Z,16.95
2022-09-15T17:58:26.861Z,16.92
2022-09-15T18:00:54.021Z,16.86
2022-09-15T18:03:38.593Z,16.84
2022-09-15T18:06:06.969Z,16.78
2022-09-15T18:08:33.759Z,16.74
2022-09-15T18:11:00.898Z,16.73
2022-09-15T18:13:29.709Z,16.74
2022-09-15T18:15:56.582Z,16.78
2022-09-15T18:18:24.740Z,16.78
2022-09-15T18:20:53.125Z,16.81
2022-09-15T18:23:20.904Z,16.84
2022-09-15T18:25:48.030Z,16.84
2022-09-15T18:28:15.410Z,16.84
2022-09-15T18:30:43.328Z,16.83
2022-09-15T18:33:13.769Z,16.87
2022-09-15T18:35:41.026Z,16.90
2022-09-15T18:38:08.117Z,16.87
2022-09-15T18:40:34.659Z,16.86
2022-09-15T18:43:01.232Z,16.82
2022-09-15T18:45:28.270Z,16.80
2022-09-15T18:47:54.903Z,16.79
2022-09-15T18:50:22.571Z,16.77
2022-09-15T18:52:49.556Z,16.77
2022-09-15T18:55:18.111Z,16.75
2022-09-15T18:57:44.751Z,16.76
2022-09-15T19:00:13.581Z,16.72
2022-09-15T19:02:40.202Z,16.71
2022-09-15T19:05:07.468Z,16.68
2022-09-15T19:07:34.047Z,16.66
2022-09-15T19:10:01.710Z,16.67
2022-09-15T19:12:28.464Z,16.69
2022-09-15T19:14:55.021Z,16.70
2022-09-15T19:17:21.629Z,16.69
2022-09-15T19:19:49.105Z,16.67
2022-09-15T19:22:15.716Z,16.64
2022-09-15T19:24:42.319Z,16.61
2022-09-15T19:27:09.021Z,16.59
2022-09-15T19:29:36.414Z,16.56
2022-09-15T19:32:04.428Z,16.55
2022-09-15T19:34:31.215Z,16.50
2022-09-15T19:36:57.881Z,16.46
2022-09-15T19:39:24.424Z,16.45
2022-09-15T19:41:51.120Z,16.45
2022-09-15T19:44:18.094Z,16.44
2022-09-15T19:46:44.711Z,16.44
2022-09-15T19:49:11.580Z,16.42
2022-09-15T19:51:38.316Z,16.40
2022-09-15T19:54:05.322Z,16.38
2022-09-15T19:56:31.927Z,16.38
2022-09-15T19:58:58.985Z,16.34
2022-09-15T20:01:27.296Z,16.31
2022-09-15T20:03:56.088Z,16.30
2022-09-15T20:06:23.741Z,16.27
2022-09-15T20:08:54.891Z,16.26
2022-09-15T20:11:22.048Z,16.24
2022-09-15T20:13:49.214Z,16.23
2022-09-15T20:16:17.927Z,16.23
2022-09-15T20:18:46.701Z,16.23
2022-09-15T20:21:26.982Z,16.25
2022-09-15T20:24:02.030Z,16.25
2022-09-15T20:26:30.623Z,16.21
2022-09-15T20:28:59.895Z,16.15
2022-09-15T20:31:26.848Z,16.12
2022-09-15T20:33:54.522Z,16.09
2022-09-15T20:36:23.502Z,16.09
2022-09-15T20:38:51.229Z,16.13
2022-09-15T20:41:19.262Z,16.14
2022-09-15T20:43:46.120Z,16.09
2022-09-15T20:46:14.421Z,16.07
2022-09-15T20:48:41.252Z,16.04
2022-09-15T20:51:18.348Z,16.01
2022-09-15T20:53:48.598Z,15.99
2022-09-15T20:56:16.241Z,15.94
2022-09-15T20:58:43.353Z,15.93
2022-09-15T21:01:12.207Z,15.89
2022-09-15T21:03:40.264Z,15.86
2022-09-15T21:06:14.498Z,15.84
2022-09-15T21:08:41.896Z,15.85
2022-09-15T21:11:13.437Z,15.84
2022-09-15T21:13:41.388Z,15.75
2022-09-15T21:16:09.569Z,15.77
2022-09-15T21:18:38.393Z,15.76
2022-09-15T21:21:07.840Z,15.78
2022-09-15T21:23:45.460Z,15.80
2022-09-15T21:26:13.422Z,15.79
2022-09-15T21:28:40.204Z,15.79
2022-09-15T21:31:08.113Z,15.78
2022-09-15T21:33:35.293Z,15.78
2022-09-15T21:36:09.625Z,15.78
2022-09-15T21:38:37.487Z,15.79
2022-09-15T21:41:05.558Z,15.78
2022-09-15T21:43:34.731Z,15.77
2022-09-15T21:46:03.580Z,15.78
2022-09-15T21:48:33.727Z,15.76
2022-09-15T21:51:00.856Z,15.79
2022-09-15T21:53:27.432Z,15.80
2022-09-15T21:55:54.064Z,15.81
2022-09-15T21:58:21.739Z,15.76
2022-09-15T22:00:49.475Z,15.71
2022-09-15T22:03:16.717Z,15.71
2022-09-15T22:05:44.449Z,15.71
2022-09-15T22:08:12.275Z,15.75
2022-09-15T22:10:39.417Z,15.75
2022-09-15T22:13:06.600Z,15.77
2022-09-15T22:15:33.355Z,15.77
2022-09-15T22:18:00.016Z,15.77
2022-09-15T22:20:28.042Z,15.78
2022-09-15T22:23:00.457Z,15.78
2022-09-15T22:25:27.319Z,15.78
2022-09-15T22:27:53.909Z,15.77
2022-09-15T22:30:20.434Z,15.76
2022-09-15T22:32:47.019Z,15.76
2022-09-15T22:35:13.651Z,15.77
2022-09-15T22:37:40.259Z,15.76
2022-09-15T22:40:07.102Z,15.77
2022-09-15T22:42:33.674Z,15.77
2022-09-15T22:45:00.265Z,15.77
2022-09-15T22:47:26.781Z,15.78
2022-09-15T22:49:53.386Z,15.78
2022-09-15T22:52:21.207Z,15.79
2022-09-15T22:54:47.787Z,15.80
2022-09-15T22:57:14.343Z,15.81
2022-09-15T22:59:40.865Z,15.79
2022-09-15T23:02:07.473Z,15.81
2022-09-15T23:04:34.072Z,15.82
2022-09-15T23:07:00.588Z,15.81
2022-09-15T23:09:27.175Z,15.81
2022-09-15T23:11:53.751Z,15.80
2022-09-15T23:14:20.411Z,15.79
2022-09-15T23:16:47.082Z,15.79
2022-09-15T23:19:14.185Z,15.79
2022-09-15T23:21:40.897Z,15.78
2022-09-15T23:24:08.711Z,15.73
2022-09-15T23:26:35.347Z,15.74
2022-09-15T23:29:01.929Z,15.76
2022-09-15T23:31:28.584Z,15.77
2022-09-15T23:33:55.185Z,15.78
2022-09-15T23:36:21.977Z,15.78
2022-09-15T23:38:48.915Z,15.78
2022-09-15T23:41:15.968Z,15.79
2022-09-15T23:43:42.639Z,15.77
2022-09-15T23:46:09.653Z,15.79
2022-09-15T23:48:36.440Z,15.81
2022-09-15T23:51:03.568Z,15.82
2022-09-15T23:53:30.406Z,15.83
2022-09-15T23:55:56.972Z,15.82
2022-09-15T23:58:23.724Z,15.80
